Time;durP1;ratioP1;P1;durP2;ratioP2;P2;SDS_P1;SDS_P2;PMS_P1;PMS_P2;Temp;Humidity;BMP_temperature;BMP_pressure;BME280_temperature;BME280_humidity;BME280_pressure;Samples;Min_cycle;Max_cycle;Signal;HPM_P1;HPM_P2
2022/08/02 00:00:10;;;;;;;9.88;5.45;;;;;;;;;;5012648;28;95463;-73
2022/08/02 00:02:37;;;;;;;9.60;4.63;;;;;;;;;;5012126;28;97275;-75
2022/08/02 00:05:04;;;;;;;11.73;5.30;;;;;;;;;;5001512;28;97389;-75
2022/08/02 00:07:30;;;;;;;12.68;5.00;;;;;;;;;;5015646;28;95496;-75
2022/08/02 00:09:56;;;;;;;12.98;5.03;;;;;;;;;;5022867;28;97228;-76
2022/08/02 00:12:23;;;;;;;12.00;4.97;;;;;;;;;;5014237;28;95430;-75
2022/08/02 00:14:49;;;;;;;10.98;5.00;;;;;;;;;;5021289;28;97068;-76
2022/08/02 00:17:16;;;;;;;10.48;5.20;;;;;;;;;;4992127;28;97687;-75
2022/08/02 00:19:42;;;;;;;10.98;4.60;;;;;;;;;;5012088;28;95263;-74
2022/08/02 00:22:09;;;;;;;7.65;4.63;;;;;;;;;;5012319;28;96579;-75
2022/08/02 00:24:36;;;;;;;12.35;5.25;;;;;;;;;;5008577;28;97900;-75
2022/08/02 00:27:03;;;;;;;10.20;5.30;;;;;;;;;;5013927;28;95406;-74
2022/08/02 00:29:35;;;;;;;12.05;5.13;;;;;;;;;;5011943;28;97957;-75
2022/08/02 00:32:18;;;;;;;15.65;5.00;;;;;;;;;;5011023;28;95517;-74
2022/08/02 00:34:44;;;;;;;11.68;5.03;;;;;;;;;;5010869;28;97198;-74
2022/08/02 00:37:11;;;;;;;7.20;4.85;;;;;;;;;;5010626;28;97692;-74
2022/08/02 00:39:37;;;;;;;11.43;5.07;;;;;;;;;;5011088;28;95371;-73
2022/08/02 00:42:04;;;;;;;14.50;4.90;;;;;;;;;;5011546;28;96898;-74
2022/08/02 00:44:30;;;;;;;15.57;4.55;;;;;;;;;;5007591;28;97617;-76
2022/08/02 00:46:57;;;;;;;9.30;5.22;;;;;;;;;;4999428;28;96019;-75
2022/08/02 00:49:23;;;;;;;13.85;4.88;;;;;;;;;;4999316;28;96074;-74
2022/08/02 00:51:49;;;;;;;16.05;5.30;;;;;;;;;;5015323;28;95347;-74
2022/08/02 00:54:16;;;;;;;10.60;4.70;;;;;;;;;;4996321;28;97595;-74
2022/08/02 00:56:43;;;;;;;12.85;4.75;;;;;;;;;;5000070;28;97832;-72
2022/08/02 00:59:16;;;;;;;11.85;4.93;;;;;;;;;;5014552;28;95383;-72
2022/08/02 01:01:43;;;;;;;8.80;4.20;;;;;;;;;;5014886;28;97556;-74
2022/08/02 01:04:24;;;;;;;7.32;4.07;;;;;;;;;;5014497;28;98353;-74
2022/08/02 01:07:00;;;;;;;10.07;4.10;;;;;;;;;;5012697;28;95581;-75
2022/08/02 01:09:27;;;;;;;7.65;4.32;;;;;;;;;;5013703;28;97553;-75
2022/08/02 01:11:53;;;;;;;11.75;4.25;;;;;;;;;;5017141;28;97561;-71
2022/08/02 01:14:28;;;;;;;8.80;4.18;;;;;;;;;;5012949;28;96233;-71
2022/08/02 01:17:09;;;;;;;9.88;4.70;;;;;;;;;;4994913;28;97638;-74
2022/08/02 01:19:57;;;;;;;11.35;4.68;;;;;;;;;;5014648;28;95362;-73
2022/08/02 01:22:24;;;;;;;9.13;4.50;;;;;;;;;;5014124;28;97647;-73
2022/08/02 01:25:31;;;;;;;12.38;4.50;;;;;;;;;;5013889;28;98866;-74
2022/08/02 01:28:25;;;;;;;15.18;4.20;;;;;;;;;;5011833;28;95371;-74
2022/08/02 01:30:59;;;;;;;12.75;4.20;;;;;;;;;;5013701;28;97481;-75
2022/08/02 01:33:27;;;;;;;9.27;3.58;;;;;;;;;;5014185;28;96898;-75
2022/08/02 01:35:55;;;;;;;8.38;4.03;;;;;;;;;;5004396;28;95391;-73
2022/08/02 01:38:28;;;;;;;9.70;4.18;;;;;;;;;;5011101;28;97799;-72
2022/08/02 01:40:55;;;;;;;15.05;3.60;;;;;;;;;;4996342;28;95260;-73
2022/08/02 01:43:23;;;;;;;7.88;3.90;;;;;;;;;;5013621;28;97535;-72
2022/08/02 01:45:49;;;;;;;6.85;3.70;;;;;;;;;;5012947;28;98045;-72
2022/08/02 01:48:16;;;;;;;8.68;3.35;;;;;;;;;;5012937;28;95317;-73
2022/08/02 01:50:43;;;;;;;6.68;3.58;;;;;;;;;;5014016;28;97449;-72
2022/08/02 01:53:11;;;;;;;6.22;3.20;;;;;;;;;;5012896;28;97749;-73
2022/08/02 01:55:48;;;;;;;10.00;3.50;;;;;;;;;;4994401;28;95498;-73
2022/08/02 01:58:25;;;;;;;5.15;3.42;;;;;;;;;;5016100;28;97530;-73
2022/08/02 02:00:54;;;;;;;8.68;3.58;;;;;;;;;;5013403;28;95366;-73
2022/08/02 02:03:22;;;;;;;8.05;3.30;;;;;;;;;;5013282;28;97750;-74
2022/08/02 02:05:50;;;;;;;8.95;3.60;;;;;;;;;;5002296;28;98209;-73
2022/08/02 02:08:22;;;;;;;6.18;3.25;;;;;;;;;;5007670;28;95694;-73
2022/08/02 02:10:53;;;;;;;7.63;3.50;;;;;;;;;;5013483;28;96430;-73
2022/08/02 02:13:20;;;;;;;7.47;2.83;;;;;;;;;;5013578;28;97619;-73
2022/08/02 02:16:00;;;;;;;7.05;3.22;;;;;;;;;;5003879;28;95428;-73
2022/08/02 02:18:28;;;;;;;9.60;3.25;;;;;;;;;;5008975;28;96969;-74
2022/08/02 02:20:55;;;;;;;8.23;3.15;;;;;;;;;;5016890;28;97763;-74
2022/08/02 02:23:21;;;;;;;9.88;3.50;;;;;;;;;;5013427;28;97499;-72
2022/08/02 02:25:52;;;;;;;7.95;3.05;;;;;;;;;;5004307;28;97920;-72
2022/08/02 02:28:23;;;;;;;10.65;3.33;;;;;;;;;;5005797;28;95428;-73
2022/08/02 02:30:52;;;;;;;4.97;3.17;;;;;;;;;;5013501;28;97128;-73
2022/08/02 02:33:19;;;;;;;5.88;2.70;;;;;;;;;;5013071;28;97614;-72
2022/08/02 02:35:46;;;;;;;9.13;3.15;;;;;;;;;;5011442;28;95403;-72
2022/08/02 02:38:15;;;;;;;6.63;2.80;;;;;;;;;;5012435;28;97324;-72
2022/08/02 02:40:43;;;;;;;12.35;3.17;;;;;;;;;;5016321;28;97861;-72
2022/08/02 02:43:11;;;;;;;6.85;2.95;;;;;;;;;;5013905;28;97668;-74
2022/08/02 02:45:38;;;;;;;7.60;3.00;;;;;;;;;;5010828;28;97731;-73
2022/08/02 02:48:06;;;;;;;8.02;3.40;;;;;;;;;;5011932;28;95457;-74
2022/08/02 02:50:32;;;;;;;8.98;2.85;;;;;;;;;;5013352;28;96961;-73
2022/08/02 02:52:59;;;;;;;6.20;2.85;;;;;;;;;;5012514;28;97449;-73
2022/08/02 02:55:26;;;;;;;6.97;2.60;;;;;;;;;;5012264;28;95309;-73
2022/08/02 02:57:53;;;;;;;9.60;3.25;;;;;;;;;;5010731;28;96651;-73
2022/08/02 03:01:26;;;;;;;7.45;2.88;;;;;;;;;;5009407;28;97386;-73
2022/08/02 03:03:06;;;;;;;6.53;3.00;;;;;;;;;;5015594;28;95238;-73
2022/08/02 03:05:33;;;;;;;12.85;2.72;;;;;;;;;;5012700;28;97290;-73
2022/08/02 03:07:59;;;;;;;9.05;3.22;;;;;;;;;;5003723;28;95490;-72
2022/08/02 03:10:26;;;;;;;12.25;3.10;;;;;;;;;;5011606;28;96803;-73
2022/08/02 03:12:52;;;;;;;7.55;3.22;;;;;;;;;;5013067;28;97422;-73
2022/08/02 03:15:20;;;;;;;5.00;2.95;;;;;;;;;;5012210;28;95403;-72
2022/08/02 03:17:46;;;;;;;7.63;3.30;;;;;;;;;;5008684;28;96715;-73
2022/08/02 03:20:13;;;;;;;11.95;3.10;;;;;;;;;;5012019;28;97369;-73
2022/08/02 03:22:41;;;;;;;7.35;3.25;;;;;;;;;;5012306;28;95156;-73
2022/08/02 03:25:08;;;;;;;6.85;3.28;;;;;;;;;;5015901;28;96849;-73
2022/08/02 03:27:34;;;;;;;7.75;3.30;;;;;;;;;;5010344;28;95502;-73
2022/08/02 03:30:01;;;;;;;12.20;3.42;;;;;;;;;;5010154;28;96825;-72
2022/08/02 03:32:27;;;;;;;8.25;3.17;;;;;;;;;;4997795;28;97836;-72
2022/08/02 03:34:53;;;;;;;6.38;3.20;;;;;;;;;;5012249;28;95351;-73
2022/08/02 03:37:20;;;;;;;7.35;3.22;;;;;;;;;;5012283;28;95842;-73
2022/08/02 03:39:47;;;;;;;10.55;3.10;;;;;;;;;;5008408;28;97438;-73
2022/08/02 03:42:18;;;;;;;6.97;3.53;;;;;;;;;;5012444;28;95667;-73
2022/08/02 03:44:46;;;;;;;6.88;3.20;;;;;;;;;;5012299;28;96803;-73
2022/08/02 03:47:12;;;;;;;6.90;3.00;;;;;;;;;;5015384;28;97328;-73
2022/08/02 03:49:40;;;;;;;6.75;3.42;;;;;;;;;;5010391;28;97382;-72
2022/08/02 03:52:06;;;;;;;6.30;2.90;;;;;;;;;;4997138;28;97404;-73
2022/08/02 03:54:33;;;;;;;5.95;3.30;;;;;;;;;;5011915;28;95406;-74
2022/08/02 03:57:10;;;;;;;10.18;3.00;;;;;;;;;;5012050;28;96888;-73
2022/08/02 03:59:44;;;;;;;10.95;3.13;;;;;;;;;;5011224;28;96454;-73
2022/08/02 04:02:11;;;;;;;7.32;2.90;;;;;;;;;;5010598;28;95389;-72
2022/08/02 04:04:38;;;;;;;10.40;3.35;;;;;;;;;;5012912;28;96786;-72
2022/08/02 04:07:04;;;;;;;9.30;3.70;;;;;;;;;;5011568;28;97281;-72
2022/08/02 04:09:32;;;;;;;10.90;3.05;;;;;;;;;;5013550;28;95188;-73
2022/08/02 04:11:59;;;;;;;9.52;3.30;;;;;;;;;;5000638;28;97465;-72
2022/08/02 04:14:25;;;;;;;20.42;3.53;;;;;;;;;;5009627;28;95332;-73
2022/08/02 04:16:53;;;;;;;11.25;3.00;;;;;;;;;;5011650;28;96713;-73
2022/08/02 04:19:22;;;;;;;14.00;4.03;;;;;;;;;;5009866;28;97076;-72
2022/08/02 04:21:50;;;;;;;10.20;3.03;;;;;;;;;;5010686;28;95423;-73
2022/08/02 04:24:23;;;;;;;6.50;3.08;;;;;;;;;;5013956;28;96844;-73
2022/08/02 04:26:54;;;;;;;11.13;3.40;;;;;;;;;;5015618;28;97352;-73
2022/08/02 04:29:32;;;;;;;18.77;3.40;;;;;;;;;;5014762;28;95609;-74
2022/08/02 04:31:59;;;;;;;6.65;2.95;;;;;;;;;;5016591;28;97140;-73
2022/08/02 04:34:25;;;;;;;5.80;2.90;;;;;;;;;;5016990;28;95410;-73
2022/08/02 04:36:52;;;;;;;7.53;3.17;;;;;;;;;;5015499;28;96918;-73
2022/08/02 04:39:18;;;;;;;8.93;3.50;;;;;;;;;;5012670;28;96359;-73
2022/08/02 04:41:47;;;;;;;11.85;3.33;;;;;;;;;;5013959;28;95351;-73
2022/08/02 04:44:13;;;;;;;7.35;3.35;;;;;;;;;;5017367;28;96612;-72
2022/08/02 04:46:41;;;;;;;6.18;3.10;;;;;;;;;;5014345;28;98204;-74
2022/08/02 04:49:08;;;;;;;15.25;3.47;;;;;;;;;;5014961;28;95205;-72
2022/08/02 04:51:35;;;;;;;8.32;3.55;;;;;;;;;;5016367;28;95921;-73
2022/08/02 04:54:04;;;;;;;6.18;3.28;;;;;;;;;;5016299;28;95386;-74
2022/08/02 04:56:35;;;;;;;10.18;3.42;;;;;;;;;;5014446;28;96903;-72
2022/08/02 04:59:01;;;;;;;7.13;2.97;;;;;;;;;;5014302;28;97478;-72
2022/08/02 05:01:28;;;;;;;7.65;3.10;;;;;;;;;;5012107;28;95368;-72
2022/08/02 05:03:54;;;;;;;11.52;3.85;;;;;;;;;;5014268;28;96860;-72
2022/08/02 05:06:20;;;;;;;13.85;3.53;;;;;;;;;;5012695;28;97325;-74
2022/08/02 20:06:44;;;;;;;9.65;2.45;;;;;;;;;;5030084;27;95958;-77
2022/08/02 20:09:15;;;;;;;9.60;1.95;;;;;;;;;;5025743;28;97418;-76
2022/08/02 20:11:47;;;;;;;7.75;1.83;;;;;;;;;;5020576;27;96330;-77
2022/08/02 20:14:20;;;;;;;8.60;2.05;;;;;;;;;;5023408;28;96755;-76
2022/08/02 20:16:53;;;;;;;8.93;2.35;;;;;;;;;;5024652;28;97626;-77
2022/08/02 20:19:19;;;;;;;8.50;2.15;;;;;;;;;;5025156;28;95600;-74
2022/08/02 20:21:47;;;;;;;13.07;2.30;;;;;;;;;;5026122;28;96883;-74
2022/08/02 20:24:23;;;;;;;6.20;1.85;;;;;;;;;;5027833;28;96242;-74
2022/08/02 20:26:51;;;;;;;7.60;2.00;;;;;;;;;;5026459;27;95400;-74
2022/08/02 20:29:18;;;;;;;6.43;1.85;;;;;;;;;;5027904;28;97726;-77
2022/08/02 20:32:05;;;;;;;10.63;1.75;;;;;;;;;;5025136;28;96893;-74
2022/08/02 20:34:33;;;;;;;9.45;1.83;;;;;;;;;;5027723;28;96720;-74
2022/08/02 20:37:01;;;;;;;8.27;1.83;;;;;;;;;;5028020;28;97464;-77
2022/08/02 20:39:48;;;;;;;10.95;1.88;;;;;;;;;;5023369;27;95298;-77
2022/08/02 20:42:20;;;;;;;7.75;1.92;;;;;;;;;;5031157;27;96833;-77
2022/08/02 20:44:55;;;;;;;6.10;1.77;;;;;;;;;;5028136;28;97412;-77
2022/08/02 20:47:22;;;;;;;8.48;1.90;;;;;;;;;;5028306;28;95222;-77
2022/08/02 20:52:58;;;;;;;8.95;2.10;;;;;;;;;;5026510;28;95268;-77
2022/08/02 20:55:25;;;;;;;10.55;1.95;;;;;;;;;;5021092;27;97950;-74
2022/08/02 20:57:54;;;;;;;7.35;1.80;;;;;;;;;;5013143;28;97361;-78
2022/08/02 21:00:27;;;;;;;8.02;1.67;;;;;;;;;;5025027;28;95301;-75
2022/08/02 21:02:54;;;;;;;8.70;2.00;;;;;;;;;;5024929;28;96764;-74
2022/08/02 21:05:20;;;;;;;8.43;1.80;;;;;;;;;;5024950;28;97144;-74
2022/08/02 21:08:09;;;;;;;12.13;2.05;;;;;;;;;;5026789;28;95391;-75
2022/08/02 21:10:40;;;;;;;6.70;1.65;;;;;;;;;;5027857;28;96693;-76
2022/08/02 21:13:09;;;;;;;18.02;2.13;;;;;;;;;;5028561;28;97355;-75
2022/08/02 21:15:48;;;;;;;9.70;2.10;;;;;;;;;;5024692;28;97004;-75
2022/08/02 21:18:15;;;;;;;9.77;2.33;;;;;;;;;;5013904;28;97450;-75
2022/08/02 21:20:55;;;;;;;11.25;1.60;;;;;;;;;;5015111;28;95190;-75
2022/08/02 21:23:22;;;;;;;6.65;1.60;;;;;;;;;;5014269;28;97125;-75
2022/08/02 21:25:49;;;;;;;5.30;1.63;;;;;;;;;;5011076;28;97687;-77
2022/08/02 21:28:23;;;;;;;10.25;2.33;;;;;;;;;;5011871;28;95276;-77
2022/08/02 21:31:08;;;;;;;7.28;1.90;;;;;;;;;;4994534;28;97415;-74
2022/08/02 21:33:35;;;;;;;5.97;1.67;;;;;;;;;;4996542;28;97606;-74
2022/08/02 21:36:21;;;;;;;6.50;1.73;;;;;;;;;;5012008;28;95447;-75
2022/08/02 21:38:56;;;;;;;10.38;1.95;;;;;;;;;;5013028;28;97397;-75
2022/08/02 21:41:23;;;;;;;5.75;1.73;;;;;;;;;;5014119;28;95654;-75
2022/08/02 21:44:05;;;;;;;5.55;1.60;;;;;;;;;;5013190;28;96756;-75
2022/08/02 21:46:32;;;;;;;8.57;2.17;;;;;;;;;;5011980;28;97425;-74
2022/08/02 21:48:59;;;;;;;7.47;1.55;;;;;;;;;;5014535;28;95407;-75
2022/08/02 21:51:26;;;;;;;12.02;2.05;;;;;;;;;;5011018;28;96369;-77
2022/08/02 21:53:54;;;;;;;8.07;1.80;;;;;;;;;;5012833;28;97793;-74
2022/08/02 21:56:40;;;;;;;13.43;2.13;;;;;;;;;;5013986;28;95407;-77
2022/08/02 21:59:07;;;;;;;9.40;1.90;;;;;;;;;;5015090;28;96673;-75
2022/08/02 22:01:42;;;;;;;7.03;2.10;;;;;;;;;;5013855;28;95083;-75
2022/08/02 22:04:18;;;;;;;12.88;2.35;;;;;;;;;;5008003;28;97011;-76
2022/08/02 22:06:45;;;;;;;11.05;2.00;;;;;;;;;;5032095;28;97320;-75
2022/08/02 22:09:14;;;;;;;6.97;1.90;;;;;;;;;;5034838;28;95590;-75
2022/08/02 22:11:43;;;;;;;9.90;1.98;;;;;;;;;;5032525;28;96732;-75
2022/08/02 22:14:11;;;;;;;7.35;2.08;;;;;;;;;;5033855;28;97424;-75
2022/08/02 22:16:37;;;;;;;8.05;1.70;;;;;;;;;;5032054;27;96080;-74
2022/08/02 22:19:04;;;;;;;7.70;1.80;;;;;;;;;;5028983;28;97038;-77
2022/08/02 22:21:32;;;;;;;9.52;1.90;;;;;;;;;;5036338;28;95411;-77
2022/08/02 22:24:18;;;;;;;12.10;1.73;;;;;;;;;;5014281;28;98430;-77
2022/08/02 22:26:55;;;;;;;11.23;2.28;;;;;;;;;;5013378;28;97540;-77
2022/08/02 22:29:22;;;;;;;5.32;1.50;;;;;;;;;;5007754;28;96121;-77
2022/08/02 22:31:48;;;;;;;5.18;1.42;;;;;;;;;;5034138;28;96817;-75
2022/08/02 22:34:15;;;;;;;9.95;1.50;;;;;;;;;;5031249;28;97292;-74
2022/08/02 22:37:01;;;;;;;7.13;1.55;;;;;;;;;;5022877;27;95257;-75
2022/08/02 22:39:32;;;;;;;5.72;1.50;;;;;;;;;;5032849;28;96749;-74
2022/08/02 22:41:58;;;;;;;9.57;2.10;;;;;;;;;;5016316;28;97454;-75
2022/08/02 22:44:40;;;;;;;13.25;1.83;;;;;;;;;;5034012;28;96776;-75
2022/08/02 22:47:09;;;;;;;6.78;1.60;;;;;;;;;;5030552;28;97813;-75
2022/08/02 22:49:40;;;;;;;6.60;1.98;;;;;;;;;;5030471;28;95137;-74
2022/08/02 22:52:19;;;;;;;6.13;1.35;;;;;;;;;;5033489;28;96854;-74
2022/08/02 22:54:46;;;;;;;6.25;1.83;;;;;;;;;;5015517;28;97258;-77
2022/08/02 22:57:13;;;;;;;6.70;1.55;;;;;;;;;;5033657;28;95433;-75
2022/08/02 22:59:39;;;;;;;8.25;1.80;;;;;;;;;;5028293;28;97127;-77
2022/08/02 23:02:07;;;;;;;9.80;2.00;;;;;;;;;;5032872;28;97393;-77
2022/08/02 23:04:33;;;;;;;4.72;1.48;;;;;;;;;;5036288;28;95310;-78
2022/08/02 23:06:59;;;;;;;7.07;2.03;;;;;;;;;;5032947;28;96343;-77
2022/08/02 23:09:26;;;;;;;6.85;1.73;;;;;;;;;;5031105;28;95252;-77
2022/08/02 23:11:52;;;;;;;6.78;1.90;;;;;;;;;;5010370;28;96837;-77
2022/08/02 23:14:18;;;;;;;5.78;1.50;;;;;;;;;;5032724;28;96084;-77
2022/08/02 23:22:15;;;;;;;7.43;1.40;;;;;;;;;;5030763;27;97356;-77
2022/08/02 23:24:42;;;;;;;13.35;1.85;;;;;;;;;;5033306;28;95427;-77
2022/08/02 23:27:08;;;;;;;6.85;1.60;;;;;;;;;;5032422;28;97196;-76
2022/08/02 23:29:35;;;;;;;6.13;1.75;;;;;;;;;;5033440;28;95215;-75
2022/08/02 23:32:01;;;;;;;9.55;1.80;;;;;;;;;;5031357;28;97040;-75
2022/08/02 23:34:27;;;;;;;8.05;2.03;;;;;;;;;;5032885;28;97357;-75
2022/08/02 23:36:54;;;;;;;6.43;1.80;;;;;;;;;;5010574;28;95342;-75
2022/08/02 23:39:20;;;;;;;8.85;1.80;;;;;;;;;;5014808;28;96812;-75
2022/08/02 23:41:46;;;;;;;5.28;2.15;;;;;;;;;;5029390;28;97618;-75
2022/08/02 23:44:20;;;;;;;10.52;2.05;;;;;;;;;;5031785;28;95560;-75
2022/08/02 23:46:46;;;;;;;6.18;1.83;;;;;;;;;;5015557;28;96881;-76
2022/08/02 23:49:14;;;;;;;9.68;2.03;;;;;;;;;;5020583;28;97362;-75
2022/08/02 23:51:41;;;;;;;4.85;1.70;;;;;;;;;;5013571;28;96838;-75
2022/08/02 23:54:07;;;;;;;12.23;1.70;;;;;;;;;;5033064;28;97786;-75
2022/08/02 23:56:34;;;;;;;7.68;1.65;;;;;;;;;;5029230;28;95319;-75
2022/08/02 23:59:00;;;;;;;5.70;1.80;;;;;;;;;;5031654;27;98286;-75
